Segno, Texas
Current Conditions -  °F | °C
As of 10:15 AM on Tuesday 21 Oct 2014 (Local Time) from K6R3 Reporting Station
Clear Clear  
Wind Chill: 69°   Ceiling: Unl
Heat Index: 69°   Visibility: 10mi
Dew Point: 60°   Wind: 0mph
Humidity: 72%   Direction: NA
Pressure: 30.1"   Gusts: NA
Location:  30.7078°N, 94.8036°W
Report Text: K6R3 211515Z AUTO 00000KT 10SM CLR 21/15 A3010 RMK AO2 T02060154
Loading
Personal Weather Stations






























Interactive Weather Map
Tropical Storm Tracking
New forecast layout! Learn more

10-Day Weather Forecast

Advertisements
Track Severe Weather on mobile